createdAt,value
2018-10-07T00:00:55.501Z,8.60
2018-10-07T00:03:24.649Z,10.27
2018-10-07T00:05:53.812Z,9.07
2018-10-07T00:08:22.988Z,8.67
2018-10-07T00:10:52.159Z,9.50
2018-10-07T00:13:21.361Z,7.70
2018-10-07T00:15:50.529Z,9.70
2018-10-07T00:18:19.728Z,9.30
2018-10-07T00:20:48.924Z,9.50
2018-10-07T00:23:18.085Z,9.77
2018-10-07T00:25:47.317Z,20.27
2018-10-07T00:28:16.501Z,8.43
2018-10-07T00:30:45.680Z,14.93
2018-10-07T00:33:14.864Z,14.13
2018-10-07T00:35:44.025Z,12.43
2018-10-07T00:38:13.186Z,11.70
2018-10-07T00:40:42.357Z,11.87
2018-10-07T00:43:11.540Z,13.53
2018-10-07T00:45:40.708Z,23.60
2018-10-07T00:48:09.848Z,11.57
2018-10-07T00:50:39.005Z,12.60
2018-10-07T00:53:08.176Z,10.37
2018-10-07T00:55:37.361Z,17.20
2018-10-07T00:58:06.548Z,16.20
2018-10-07T01:00:35.729Z,11.27
2018-10-07T01:03:04.948Z,11.73
2018-10-07T01:05:34.131Z,18.20
2018-10-07T01:08:03.260Z,13.07
2018-10-07T01:10:32.498Z,11.33
2018-10-07T01:13:01.681Z,14.53
2018-10-07T01:15:30.827Z,10.63
2018-10-07T01:17:59.965Z,10.83
2018-10-07T01:20:29.173Z,15.30
2018-10-07T01:22:58.359Z,13.00
2018-10-07T01:25:27.504Z,10.90
2018-10-07T01:27:56.661Z,18.97
2018-10-07T01:30:25.830Z,11.30
2018-10-07T01:32:55.919Z,11.40
2018-10-07T01:35:25.435Z,12.93
2018-10-07T01:37:54.607Z,12.30
2018-10-07T01:40:23.794Z,11.63
2018-10-07T01:42:52.952Z,12.13
2018-10-07T01:45:22.095Z,11.63
2018-10-07T01:47:51.279Z,14.10
2018-10-07T01:50:20.437Z,13.20
2018-10-07T01:52:49.670Z,10.97
2018-10-07T01:55:18.833Z,16.77
2018-10-07T01:57:48.024Z,12.23
2018-10-07T02:00:17.190Z,12.83
2018-10-07T02:02:46.389Z,17.17
2018-10-07T02:05:15.621Z,13.03
2018-10-07T02:07:44.676Z,12.43
2018-10-07T02:10:13.840Z,12.07
2018-10-07T02:12:42.991Z,11.00
2018-10-07T02:15:12.142Z,11.10
2018-10-07T02:17:41.369Z,14.73
2018-10-07T02:20:10.549Z,17.53
2018-10-07T02:22:39.737Z,14.50
2018-10-07T02:25:08.960Z,11.50
2018-10-07T02:27:38.121Z,12.27
2018-10-07T02:30:07.305Z,12.20
2018-10-07T02:32:36.432Z,12.97
2018-10-07T02:35:05.610Z,13.33
2018-10-07T02:37:34.751Z,12.03
2018-10-07T02:40:04.023Z,12.43
2018-10-07T02:42:33.162Z,12.03
2018-10-07T02:45:02.384Z,12.03
2018-10-07T02:47:31.607Z,13.37
2018-10-07T02:50:00.777Z,12.03
2018-10-07T02:52:35.339Z,13.37
2018-10-07T02:55:04.573Z,12.43
2018-10-07T02:57:33.715Z,12.97
2018-10-07T03:00:02.920Z,12.63
2018-10-07T03:02:32.113Z,12.00
2018-10-07T03:05:01.288Z,13.93
2018-10-07T03:07:30.485Z,14.70
2018-10-07T03:09:59.673Z,17.87
2018-10-07T03:12:28.841Z,20.70
2018-10-07T03:14:58.025Z,19.83
2018-10-07T03:17:27.169Z,21.53
2018-10-07T03:19:56.341Z,27.43
2018-10-07T03:22:25.485Z,25.43
2018-10-07T03:24:54.689Z,24.83
2018-10-07T03:27:24.335Z,32.47
2018-10-07T03:29:53.883Z,35.73
2018-10-07T03:32:23.097Z,33.17
2018-10-07T03:34:52.280Z,32.70
2018-10-07T03:37:21.446Z,38.63
2018-10-07T03:39:50.583Z,28.30
2018-10-07T03:42:19.772Z,33.77
2018-10-07T03:44:48.954Z,36.40
2018-10-07T03:47:18.153Z,35.87
2018-10-07T03:49:47.321Z,38.33
2018-10-07T03:52:16.510Z,38.13
2018-10-07T03:54:45.676Z,40.60
2018-10-07T03:57:14.925Z,38.93
2018-10-07T03:59:44.101Z,41.27
2018-10-07T04:02:13.260Z,49.30
2018-10-07T04:04:42.426Z,55.03
2018-10-07T04:07:11.584Z,59.47
2018-10-07T04:09:40.765Z,59.33
2018-10-07T04:12:09.993Z,60.10
2018-10-07T04:14:39.129Z,71.90
2018-10-07T04:17:08.316Z,73.27
2018-10-07T04:19:37.499Z,74.73
2018-10-07T04:22:06.671Z,68.33
2018-10-07T04:24:36.103Z,75.93
2018-10-07T04:27:05.282Z,83.60
2018-10-07T04:29:34.448Z,76.40
2018-10-07T04:32:03.638Z,77.93
2018-10-07T04:34:32.798Z,72.50
2018-10-07T04:37:01.990Z,86.07
2018-10-07T04:39:31.178Z,76.27
2018-10-07T04:42:00.385Z,82.53
2018-10-07T04:44:29.561Z,77.97
2018-10-07T04:46:58.745Z,76.57
2018-10-07T04:49:27.905Z,88.73
2018-10-07T04:51:57.053Z,79.23
2018-10-07T04:54:26.197Z,87.53
2018-10-07T04:56:55.367Z,78.67
2018-10-07T04:59:24.513Z,86.23
2018-10-07T05:01:53.681Z,75.20
2018-10-07T05:04:22.831Z,83.10
2018-10-07T05:06:52.296Z,81.60
2018-10-07T05:09:21.465Z,85.73
2018-10-07T05:11:51.867Z,87.87
2018-10-07T05:14:21.061Z,95.60
2018-10-07T05:16:52.160Z,92.10
2018-10-07T05:19:21.435Z,95.53
2018-10-07T05:21:50.644Z,99.50
2018-10-07T05:24:19.843Z,103.70
2018-10-07T05:26:48.998Z,90.20
2018-10-07T05:29:18.172Z,100.70
2018-10-07T05:31:47.372Z,101.57
2018-10-07T05:34:16.540Z,106.03
2018-10-07T05:36:45.705Z,106.53
2018-10-07T05:39:14.893Z,92.53
2018-10-07T05:41:44.056Z,106.73
2018-10-07T05:44:13.309Z,107.40
2018-10-07T05:46:42.397Z,96.43
2018-10-07T05:49:11.548Z,107.87
2018-10-07T05:51:40.762Z,101.63
2018-10-07T05:54:09.911Z,107.00
2018-10-07T05:56:39.341Z,109.10
2018-10-07T05:59:08.505Z,113.57
2018-10-07T06:01:41.679Z,111.50
2018-10-07T06:04:20.120Z,110.20
2018-10-07T06:06:49.293Z,110.50
2018-10-07T06:09:25.961Z,109.83
2018-10-07T06:11:55.840Z,101.30
2018-10-07T06:14:42.268Z,97.10
2018-10-07T06:17:11.473Z,102.17
2018-10-07T06:19:40.628Z,97.03
2018-10-07T06:22:09.785Z,96.90
2018-10-07T06:24:38.972Z,97.60
2018-10-07T06:27:08.101Z,95.97
2018-10-07T06:29:37.256Z,86.27
2018-10-07T06:32:06.400Z,76.63
2018-10-07T06:34:35.577Z,89.37
2018-10-07T06:37:04.703Z,82.67
2018-10-07T06:39:33.847Z,82.13
2018-10-07T06:42:03.019Z,78.80
2018-10-07T06:44:32.181Z,75.73
2018-10-07T06:47:01.358Z,72.67
2018-10-07T06:49:30.501Z,70.90
2018-10-07T06:51:59.719Z,66.93
2018-10-07T06:54:28.872Z,69.73
2018-10-07T06:56:58.031Z,67.73
2018-10-07T06:59:27.230Z,50.50
2018-10-07T07:01:56.376Z,55.63
2018-10-07T07:04:25.507Z,56.53
2018-10-07T07:06:54.652Z,54.00
2018-10-07T07:09:23.780Z,47.53
2018-10-07T07:11:52.954Z,42.07
2018-10-07T07:14:22.092Z,37.93
2018-10-07T07:16:51.285Z,38.00
2018-10-07T07:19:20.420Z,28.10
2018-10-07T07:21:49.600Z,31.27
2018-10-07T07:24:18.764Z,26.93
2018-10-07T07:26:48.005Z,23.57
2018-10-07T07:29:17.139Z,18.70
2018-10-07T07:31:46.321Z,19.40
2018-10-07T07:34:15.472Z,18.63
2018-10-07T07:36:44.679Z,12.60
2018-10-07T07:39:13.796Z,13.33
2018-10-07T07:41:42.964Z,18.37
2018-10-07T07:44:12.133Z,12.20
2018-10-07T07:46:41.297Z,14.27
2018-10-07T07:49:10.533Z,14.20
2018-10-07T07:51:39.653Z,13.40
2018-10-07T07:54:08.829Z,16.87
2018-10-07T07:56:38.062Z,10.60
2018-10-07T07:59:07.345Z,7.77
2018-10-07T08:01:36.513Z,11.00
2018-10-07T08:04:05.748Z,9.63
2018-10-07T08:06:34.901Z,9.00
2018-10-07T08:09:05.546Z,7.60
2018-10-07T08:11:34.676Z,6.90
2018-10-07T08:14:03.912Z,5.80
2018-10-07T08:16:33.123Z,6.77
2018-10-07T08:19:02.262Z,9.50
2018-10-07T08:21:31.485Z,8.33
2018-10-07T08:24:00.643Z,8.30
2018-10-07T08:26:29.736Z,9.97
2018-10-07T08:28:58.936Z,14.13
2018-10-07T08:31:28.085Z,14.23
2018-10-07T08:33:57.246Z,6.77
2018-10-07T08:36:26.358Z,9.83
2018-10-07T08:38:55.516Z,9.37
2018-10-07T08:41:24.682Z,7.67
2018-10-07T08:43:53.835Z,4.27
2018-10-07T08:46:22.989Z,3.23
2018-10-07T08:48:52.178Z,3.40
2018-10-07T08:51:21.340Z,6.00
2018-10-07T08:53:50.555Z,3.23
2018-10-07T08:56:19.718Z,2.30
2018-10-07T08:58:48.854Z,1.37
2018-10-07T09:01:18.003Z,5.87
2018-10-07T09:03:47.148Z,2.20
2018-10-07T09:06:16.357Z,4.50
2018-10-07T09:08:45.539Z,1.97
2018-10-07T09:11:14.608Z,1.90
2018-10-07T09:13:43.751Z,2.60
2018-10-07T09:16:12.958Z,1.90
2018-10-07T09:18:42.101Z,2.03
2018-10-07T09:21:11.243Z,4.80
2018-10-07T09:23:40.390Z,2.03
2018-10-07T09:26:09.554Z,1.83
2018-10-07T09:28:38.712Z,5.77
2018-10-07T09:31:08.196Z,4.20
2018-10-07T09:33:37.349Z,6.00
2018-10-07T09:36:06.498Z,1.37
2018-10-07T09:38:35.736Z,1.70
2018-10-07T09:41:04.881Z,4.27
2018-10-07T09:43:34.077Z,1.57
2018-10-07T09:46:03.227Z,0.90
2018-10-07T09:48:32.403Z,1.47
2018-10-07T09:51:01.551Z,2.67
2018-10-07T09:53:30.794Z,5.00
2018-10-07T09:55:59.935Z,3.23
2018-10-07T09:58:29.101Z,1.37
2018-10-07T10:00:58.303Z,1.73
2018-10-07T10:03:27.496Z,5.13
2018-10-07T10:05:56.683Z,9.40
2018-10-07T10:08:25.841Z,1.30
2018-10-07T10:10:55.030Z,1.00
2018-10-07T10:13:24.240Z,1.93
2018-10-07T10:15:53.459Z,1.17
2018-10-07T10:18:30.684Z,1.33
2018-10-07T10:21:25.636Z,1.03
2018-10-07T10:24:04.620Z,0.97
2018-10-07T10:26:39.697Z,1.80
2018-10-07T10:29:28.632Z,1.27
2018-10-07T10:32:10.922Z,1.33
2018-10-07T10:34:48.104Z,1.37
2018-10-07T10:37:23.637Z,0.93
2018-10-07T10:39:57.468Z,1.20
2018-10-07T10:43:03.404Z,2.73
2018-10-07T10:45:41.030Z,2.23
2018-10-07T10:49:21.088Z,1.50
2018-10-07T10:53:08.676Z,7.07
2018-10-07T10:55:47.015Z,2.53
2018-10-07T10:59:32.866Z,3.43
2018-10-07T11:02:28.009Z,2.90
2018-10-07T11:05:14.578Z,1.50
2018-10-07T11:07:58.644Z,1.27
2018-10-07T11:10:44.593Z,2.20
2018-10-07T11:15:27.994Z,1.10
2018-10-07T11:18:19.252Z,1.10
2018-10-07T11:21:29.293Z,1.87
2018-10-07T11:24:03.388Z,1.03
2018-10-07T11:28:52.627Z,1.57
2018-10-07T11:33:45.775Z,2.43
2018-10-07T11:37:00.540Z,2.07
2018-10-07T11:39:47.730Z,1.33
2018-10-07T11:42:24.083Z,1.93
2018-10-07T11:45:16.145Z,2.40
2018-10-07T11:48:11.288Z,5.83
2018-10-07T11:50:51.881Z,2.23
2018-10-07T11:53:49.131Z,2.20
2018-10-07T11:56:18.269Z,1.40
2018-10-07T11:58:47.397Z,6.67
2018-10-07T12:01:16.520Z,4.40
2018-10-07T12:03:45.641Z,1.20
2018-10-07T12:06:14.828Z,1.50
2018-10-07T12:08:43.985Z,1.30
2018-10-07T12:11:13.404Z,3.17
2018-10-07T12:13:42.550Z,2.53
2018-10-07T12:16:12.117Z,1.70
2018-10-07T12:18:41.247Z,0.70
2018-10-07T12:21:10.452Z,1.47
2018-10-07T12:23:39.607Z,4.07
2018-10-07T12:26:08.797Z,1.00
2018-10-07T12:28:37.949Z,1.87
2018-10-07T12:31:07.799Z,1.83
2018-10-07T12:33:37.274Z,0.70
2018-10-07T12:36:06.935Z,2.93
2018-10-07T12:38:36.108Z,3.20
2018-10-07T12:41:05.265Z,2.00
2018-10-07T12:43:34.485Z,2.80
2018-10-07T12:46:03.616Z,2.40
2018-10-07T12:48:33.725Z,0.87
2018-10-07T12:51:02.897Z,2.23
2018-10-07T12:53:32.077Z,1.10
2018-10-07T12:56:01.240Z,0.77
2018-10-07T12:58:30.400Z,1.53
2018-10-07T13:00:59.580Z,5.30
2018-10-07T13:03:28.747Z,1.07
2018-10-07T13:05:57.943Z,0.57
2018-10-07T13:08:27.086Z,3.20
2018-10-07T13:10:56.236Z,1.10
2018-10-07T13:13:25.346Z,4.40
2018-10-07T13:15:54.670Z,2.40
2018-10-07T13:18:23.816Z,2.00
2018-10-07T13:20:53.038Z,2.63
2018-10-07T13:23:22.188Z,0.80
2018-10-07T13:25:51.350Z,2.20
2018-10-07T13:28:20.541Z,1.83
2018-10-07T13:30:49.783Z,1.07
2018-10-07T13:33:18.935Z,2.30
2018-10-07T13:35:48.091Z,1.53
2018-10-07T13:38:17.255Z,2.70
2018-10-07T13:40:46.440Z,1.80
2018-10-07T13:43:15.589Z,4.93
2018-10-07T13:45:44.757Z,1.77
2018-10-07T13:48:13.917Z,1.00
2018-10-07T13:50:43.121Z,1.33
2018-10-07T13:53:12.331Z,0.70
2018-10-07T13:55:41.466Z,1.47
2018-10-07T13:58:10.585Z,1.70
2018-10-07T14:00:39.754Z,1.00
2018-10-07T14:03:08.876Z,1.10
2018-10-07T14:05:38.002Z,1.10
2018-10-07T14:08:07.127Z,1.30
2018-10-07T14:10:36.238Z,4.10
2018-10-07T14:13:05.394Z,1.57
2018-10-07T14:15:34.540Z,3.90
2018-10-07T14:18:03.832Z,1.67
2018-10-07T14:20:33.047Z,0.90
2018-10-07T14:26:25.512Z,1.23
2018-10-07T14:28:54.624Z,1.60
2018-10-07T14:31:23.720Z,3.07
2018-10-07T14:33:52.967Z,1.63
2018-10-07T14:39:19.257Z,3.80
2018-10-07T14:41:48.365Z,2.30
2018-10-07T14:44:17.492Z,0.80
2018-10-07T14:46:46.712Z,1.10
2018-10-07T14:49:15.950Z,4.43
2018-10-07T14:52:04.758Z,2.20
2018-10-07T14:54:33.912Z,1.53
2018-10-07T14:57:03.004Z,2.50
2018-10-07T14:59:32.128Z,3.50
2018-10-07T15:02:01.439Z,2.10
2018-10-07T15:04:30.609Z,1.87
2018-10-07T15:06:59.828Z,2.20
2018-10-07T15:09:29.035Z,0.70
2018-10-07T15:11:58.093Z,0.83
2018-10-07T15:14:27.191Z,1.17
2018-10-07T15:16:56.327Z,1.40
2018-10-07T15:19:25.445Z,1.60
2018-10-07T15:21:54.593Z,3.87
2018-10-07T15:24:23.734Z,4.00
2018-10-07T15:26:52.857Z,2.60
2018-10-07T15:29:21.999Z,1.10
2018-10-07T15:31:51.060Z,1.97
2018-10-07T15:34:20.219Z,1.33
2018-10-07T15:36:49.353Z,1.20
2018-10-07T15:39:18.518Z,0.80
2018-10-07T15:41:47.612Z,1.80
2018-10-07T15:44:16.769Z,0.90
2018-10-07T15:46:45.905Z,2.10
2018-10-07T15:49:15.032Z,1.83
2018-10-07T15:51:44.189Z,1.07
2018-10-07T15:54:13.395Z,1.50
2018-10-07T15:56:42.582Z,6.63
2018-10-07T15:59:11.701Z,2.50
2018-10-07T16:01:40.863Z,5.27
2018-10-07T16:04:09.965Z,2.20
2018-10-07T16:06:39.089Z,2.10
2018-10-07T16:09:09.644Z,6.40
2018-10-07T16:11:38.784Z,2.57
2018-10-07T16:14:07.910Z,1.23
2018-10-07T16:16:37.256Z,1.30
2018-10-07T16:19:06.434Z,1.43
2018-10-07T16:21:35.677Z,6.13
2018-10-07T16:24:04.846Z,1.60
2018-10-07T16:26:34.056Z,2.30
2018-10-07T16:29:03.133Z,2.80
2018-10-07T16:31:32.429Z,2.87
2018-10-07T16:34:01.605Z,3.60
2018-10-07T16:36:30.778Z,1.33
2018-10-07T16:38:59.958Z,1.57
2018-10-07T16:41:29.104Z,1.17
2018-10-07T16:43:58.300Z,2.57
2018-10-07T16:46:27.446Z,3.33
2018-10-07T16:48:56.582Z,3.80
2018-10-07T16:51:26.920Z,3.20
2018-10-07T16:53:56.938Z,1.70
2018-10-07T16:56:26.199Z,2.60
2018-10-07T16:58:55.344Z,5.17
2018-10-07T17:01:24.434Z,8.43
2018-10-07T17:03:53.603Z,5.00
2018-10-07T17:06:22.753Z,3.90
2018-10-07T17:08:51.923Z,1.70
2018-10-07T17:11:21.145Z,3.43
2018-10-07T17:13:50.261Z,3.30
2018-10-07T17:16:19.441Z,2.13
2018-10-07T17:18:48.728Z,5.33
2018-10-07T17:21:17.923Z,5.87
2018-10-07T17:23:47.069Z,2.73
2018-10-07T17:26:16.252Z,3.03
2018-10-07T17:28:45.412Z,4.37
2018-10-07T17:31:14.512Z,6.70
2018-10-07T17:33:43.639Z,4.00
2018-10-07T17:36:12.745Z,3.07
2018-10-07T17:38:41.922Z,3.50
2018-10-07T17:41:11.124Z,6.70
2018-10-07T17:43:40.269Z,4.57
2018-10-07T17:46:09.450Z,2.97
2018-10-07T17:48:38.700Z,4.73
2018-10-07T17:51:07.804Z,2.27
2018-10-07T17:53:36.964Z,3.60
2018-10-07T17:56:06.353Z,3.53
2018-10-07T17:58:35.491Z,4.93
2018-10-07T18:01:04.686Z,4.30
2018-10-07T18:03:33.853Z,5.47
2018-10-07T18:06:03.044Z,4.67
2018-10-07T18:08:32.183Z,2.90
2018-10-07T18:11:01.312Z,6.17
2018-10-07T18:13:30.503Z,3.53
2018-10-07T18:15:59.634Z,4.67
2018-10-07T18:18:28.856Z,5.00
2018-10-07T18:20:58.273Z,7.80
2018-10-07T18:23:27.455Z,4.57
2018-10-07T18:25:56.652Z,2.87
2018-10-07T18:28:25.807Z,5.23
2018-10-07T18:30:55.064Z,3.30
2018-10-07T18:33:24.216Z,2.57
2018-10-07T18:35:53.339Z,12.37
2018-10-07T18:38:22.555Z,10.30
2018-10-07T18:40:51.690Z,3.10
2018-10-07T18:43:20.847Z,6.33
2018-10-07T18:45:50.060Z,20.70
2018-10-07T18:48:19.274Z,11.00
2018-10-07T18:50:48.517Z,15.57
2018-10-07T18:53:17.675Z,10.40
2018-10-07T18:55:46.835Z,8.87
2018-10-07T18:58:16.021Z,13.83
2018-10-07T19:00:45.169Z,11.63
2018-10-07T19:03:14.354Z,13.70
2018-10-07T19:05:43.528Z,6.90
2018-10-07T19:08:12.757Z,7.77
2018-10-07T19:10:41.933Z,17.23
2018-10-07T19:13:11.114Z,12.17
2018-10-07T19:15:40.269Z,11.03
2018-10-07T19:18:09.435Z,12.80
2018-10-07T19:20:38.570Z,8.43
2018-10-07T19:23:07.745Z,8.47
2018-10-07T19:25:36.945Z,21.63
2018-10-07T19:28:06.453Z,14.93
2018-10-07T19:30:35.699Z,15.03
2018-10-07T19:33:04.888Z,6.80
2018-10-07T19:35:37.071Z,9.20
2018-10-07T19:38:06.266Z,13.90
2018-10-07T19:40:35.428Z,9.57
2018-10-07T19:43:04.635Z,9.70
2018-10-07T19:45:33.831Z,10.43
2018-10-07T19:48:03.013Z,19.50
2018-10-07T19:50:32.175Z,6.93
2018-10-07T19:53:01.403Z,15.13
2018-10-07T19:55:30.580Z,16.77
2018-10-07T19:57:59.726Z,15.60
2018-10-07T20:00:28.908Z,18.27
2018-10-07T20:02:58.067Z,20.07
2018-10-07T20:05:27.232Z,6.20
2018-10-07T20:07:56.832Z,5.93
2018-10-07T20:10:26.097Z,9.80
2018-10-07T20:12:55.366Z,8.93
2018-10-07T20:15:24.500Z,11.13
2018-10-07T20:17:53.627Z,14.03
2018-10-07T20:20:22.784Z,15.13
2018-10-07T20:22:51.934Z,25.50
2018-10-07T20:25:21.133Z,17.00
2018-10-07T20:27:50.402Z,14.50
2018-10-07T20:30:19.584Z,18.10
2018-10-07T20:32:48.747Z,21.90
2018-10-07T20:35:17.982Z,32.87
2018-10-07T20:37:47.168Z,33.30
2018-10-07T20:40:16.423Z,26.63
2018-10-07T20:42:45.548Z,18.50
2018-10-07T20:45:14.756Z,19.00
2018-10-07T20:47:43.901Z,13.57
2018-10-07T20:50:13.402Z,13.67
2018-10-07T20:52:42.595Z,12.33
2018-10-07T20:55:11.799Z,10.87
2018-10-07T20:57:40.959Z,12.40
2018-10-07T21:00:10.151Z,11.53
2018-10-07T21:02:39.391Z,10.30
2018-10-07T21:05:08.572Z,11.50
2018-10-07T21:07:37.765Z,10.70
2018-10-07T21:10:06.909Z,13.53
2018-10-07T21:12:36.074Z,10.67
2018-10-07T21:15:05.249Z,8.23
2018-10-07T21:17:34.475Z,13.30
2018-10-07T21:20:03.679Z,9.37
2018-10-07T21:22:32.901Z,9.70
2018-10-07T21:25:02.135Z,20.27
2018-10-07T21:27:31.264Z,12.50
2018-10-07T21:30:00.464Z,10.13
2018-10-07T21:32:29.628Z,11.53
2018-10-07T21:34:58.776Z,13.63
2018-10-07T21:37:27.983Z,12.83
2018-10-07T21:39:57.112Z,10.37
2018-10-07T21:42:26.328Z,11.70
2018-10-07T21:44:55.480Z,12.90
2018-10-07T21:47:24.698Z,14.60
2018-10-07T21:49:53.885Z,24.07
2018-10-07T21:52:23.184Z,25.07
2018-10-07T21:54:52.377Z,23.63
2018-10-07T21:57:21.560Z,15.63
2018-10-07T21:59:50.832Z,14.03
2018-10-07T22:02:19.973Z,10.73
2018-10-07T22:04:49.112Z,7.80
2018-10-07T22:07:18.746Z,19.10
2018-10-07T22:09:47.889Z,12.17
2018-10-07T22:12:17.070Z,13.63
2018-10-07T22:14:46.210Z,20.23
2018-10-07T22:17:15.360Z,36.70
2018-10-07T22:19:44.474Z,19.93
2018-10-07T22:22:13.644Z,9.80
2018-10-07T22:24:42.804Z,45.57
2018-10-07T22:27:11.980Z,13.47
2018-10-07T22:29:41.124Z,12.83
2018-10-07T22:32:10.275Z,28.67
2018-10-07T22:34:39.437Z,19.30
2018-10-07T22:37:08.673Z,22.80
2018-10-07T22:39:37.882Z,33.53
2018-10-07T22:42:07.005Z,14.43
2018-10-07T22:44:36.206Z,40.23
2018-10-07T22:47:05.380Z,66.90
2018-10-07T22:49:34.553Z,23.60
2018-10-07T22:52:03.764Z,27.43
2018-10-07T22:54:32.956Z,33.37
2018-10-07T22:57:02.164Z,12.20
2018-10-07T22:59:31.336Z,12.83
2018-10-07T23:02:00.542Z,14.43
2018-10-07T23:04:29.752Z,30.90
2018-10-07T23:06:58.951Z,10.50
2018-10-07T23:09:28.092Z,21.70
2018-10-07T23:11:57.266Z,15.03
2018-10-07T23:14:26.500Z,19.10
2018-10-07T23:16:55.678Z,13.67
2018-10-07T23:19:24.867Z,15.03
2018-10-07T23:21:54.072Z,13.10
2018-10-07T23:24:23.254Z,11.30
2018-10-07T23:26:52.428Z,13.10
2018-10-07T23:29:21.616Z,15.03
2018-10-07T23:31:50.798Z,11.97
2018-10-07T23:34:20.020Z,13.97
2018-10-07T23:36:49.280Z,12.30
2018-10-07T23:39:18.434Z,10.87
2018-10-07T23:41:47.692Z,8.37
2018-10-07T23:44:16.895Z,11.27
2018-10-07T23:46:46.020Z,11.13
2018-10-07T23:49:15.216Z,12.30
2018-10-07T23:51:44.538Z,13.83
2018-10-07T23:54:13.570Z,11.20
2018-10-07T23:56:42.731Z,13.33
2018-10-07T23:59:11.943Z,15.53
